This is the latest recevied weather packets stored in our database for station/object KK6LZB. If no packets are shown the sender has not sent any weather packets the latest 10 day(s).
| Time | Temp. | Humidity | Pressure | Rain* | Wind** | Luminosity | Snow |
|---|---|---|---|---|---|---|---|
| 1777414364 | 21.11° C | 55% | 1018.6 hPa | 0 mm | - | 545 W/m² | - |
| 1777414059 | 22.22° C | 53% | 1018.7 hPa | 0 mm | - | 555 W/m² | - |
| 1777413758 | 22.22° C | 53% | 1018.7 hPa | 0 mm | - | 565 W/m² | - |
| 1777413454 | 21.67° C | 55% | 1018.5 hPa | 0 mm | - | 577 W/m² | - |
| 1777413151 | 22.22° C | 51% | 1018.6 hPa | 0 mm | - | 587 W/m² | - |
| 1777412846 | 22.22° C | 56% | 1018.7 hPa | 0 mm | - | 595 W/m² | - |
| 1777412546 | 22.22° C | 55% | 1018.6 hPa | 0 mm | - | 606 W/m² | - |
| 1777412243 | 21.67° C | 56% | 1018.7 hPa | 0 mm | - | 615 W/m² | - |
| 1777411940 | 22.78° C | 48% | 1018.7 hPa | 0 mm | - | 625 W/m² | - |
| 1777411638 | 22.78° C | 54% | 1019 hPa | 0 mm | - | 633 W/m² | - |
| 1777411334 | 22.22° C | 51% | 1019 hPa | 0 mm | - | 641 W/m² | - |
| 1777411033 | 22.22° C | 53% | 1019 hPa | 0 mm | - | 650 W/m² | - |
| 1777410733 | 21.11° C | 54% | 1019 hPa | 0 mm | - | 656 W/m² | - |
| 1777410427 | 21.67° C | 54% | 1018.6 hPa | 0 mm | - | 663 W/m² | - |
| 1777410126 | 21.67° C | 54% | 1018.8 hPa | 0 mm | - | 670 W/m² | - |
| 1777409821 | 21.67° C | 55% | 1018.7 hPa | 0 mm | - | 677 W/m² | - |
| 1777409517 | 21.11° C | 55% | 1019 hPa | 0 mm | - | 694 W/m² | - |
| 1777409213 | 21.11° C | 55% | 1019 hPa | 0 mm | - | 689 W/m² | - |
| 1777408909 | 21.11° C | 54% | 1018.8 hPa | 0 mm | - | 452 W/m² | - |
| 1777408605 | 21.11° C | 55% | 1019 hPa | 0 mm | - | 497 W/m² | - |
| 1777408301 | 21.67° C | 55% | 1019 hPa | 0 mm | - | 721 W/m² | - |
| 1777408001 | 20.56° C | 55% | 1018.6 hPa | 0 mm | - | 717 W/m² | - |
| 1777407698 | 21.11° C | 55% | 1018.8 hPa | 0 mm | - | 712 W/m² | - |
| 1777407398 | 21.11° C | 56% | 1019 hPa | 0 mm | - | 710 W/m² | - |
| 1777407094 | 22.78° C | 51% | 1019 hPa | 0 mm | - | 730 W/m² | - |
* Rain latest hour (hover to see other rain measurements)
** Current wind speed in m/s (hover to see current wind gust speed)